Time;durP1;ratioP1;P1;durP2;ratioP2;P2;SDS_P1;SDS_P2;PMS_P1;PMS_P2;Temp;Humidity;BMP_temperature;BMP_pressure;BME280_temperature;BME280_humidity;BME280_pressure;Samples;Min_cycle;Max_cycle;Signal;HPM_P1;HPM_P2
2023/10/29 00:00:55;;;;;;;9.30;8.75;;;;;;;;;;4117067;28;20293;-68
2023/10/29 00:02:57;;;;;;;8.27;7.63;;;;;;;;;;4117235;28;20074;-68
2023/10/29 00:04:59;;;;;;;8.70;8.38;;;;;;;;;;4117099;28;20537;-68
2023/10/29 00:07:03;;;;;;;8.60;8.20;;;;;;;;;;4122216;28;20061;-69
2023/10/29 00:09:06;;;;;;;9.63;9.07;;;;;;;;;;4126139;28;20043;-68
2023/10/29 00:11:13;;;;;;;8.25;7.70;;;;;;;;;;4117420;28;20053;-68
2023/10/29 00:13:15;;;;;;;8.68;8.32;;;;;;;;;;4117074;28;20049;-68
2023/10/29 00:15:17;;;;;;;10.10;9.80;;;;;;;;;;4117053;28;20553;-69
2023/10/29 00:17:18;;;;;;;8.90;8.65;;;;;;;;;;4117344;28;20046;-68
2023/10/29 00:19:20;;;;;;;8.75;8.43;;;;;;;;;;4117297;28;20055;-69
2023/10/29 00:21:21;;;;;;;8.70;8.50;;;;;;;;;;4117318;28;20518;-69
2023/10/29 00:23:23;;;;;;;7.40;7.10;;;;;;;;;;4117032;28;20046;-69
2023/10/29 00:25:25;;;;;;;6.23;6.03;;;;;;;;;;4117045;28;20050;-69
2023/10/29 00:27:26;;;;;;;7.17;6.70;;;;;;;;;;4117013;28;20302;-69
2023/10/29 00:29:28;;;;;;;8.87;8.03;;;;;;;;;;4116920;28;20123;-69
2023/10/29 00:31:30;;;;;;;8.10;7.80;;;;;;;;;;4117115;28;20317;-68
2023/10/29 00:33:32;;;;;;;8.77;8.38;;;;;;;;;;4116720;28;20046;-69
2023/10/29 00:35:33;;;;;;;9.73;9.40;;;;;;;;;;4116796;28;20102;-68
2023/10/29 00:37:35;;;;;;;8.40;8.00;;;;;;;;;;4117006;28;20053;-69
2023/10/29 00:39:37;;;;;;;7.13;6.93;;;;;;;;;;4116546;28;20298;-69
2023/10/29 00:41:38;;;;;;;6.70;6.50;;;;;;;;;;4116717;28;20066;-69
2023/10/29 00:43:40;;;;;;;7.60;7.18;;;;;;;;;;4116976;28;20766;-69
2023/10/29 00:45:49;;;;;;;7.43;6.97;;;;;;;;;;4116645;28;20566;-69
2023/10/29 00:47:51;;;;;;;7.18;6.85;;;;;;;;;;4101624;28;20047;-69
2023/10/29 00:49:53;;;;;;;7.90;7.70;;;;;;;;;;4115355;28;20410;-69
2023/10/29 00:51:55;;;;;;;8.80;8.25;;;;;;;;;;4116612;28;20046;-69
2023/10/29 00:53:57;;;;;;;10.82;9.98;;;;;;;;;;4106989;28;20035;-69
2023/10/29 00:55:59;;;;;;;8.63;8.32;;;;;;;;;;4100821;29;20122;-69
2023/10/29 00:58:01;;;;;;;9.50;9.10;;;;;;;;;;4100755;29;20047;-68
2023/10/29 01:00:04;;;;;;;9.68;8.98;;;;;;;;;;4110102;28;20109;-69
2023/10/29 01:02:05;;;;;;;9.27;9.02;;;;;;;;;;4116363;28;20046;-68
2023/10/29 01:04:08;;;;;;;8.70;8.48;;;;;;;;;;4127853;28;20054;-68
2023/10/29 01:06:10;;;;;;;8.82;8.10;;;;;;;;;;4132602;28;20042;-68
2023/10/29 01:08:12;;;;;;;9.45;8.57;;;;;;;;;;4132362;28;20082;-69
2023/10/29 01:10:14;;;;;;;8.65;8.20;;;;;;;;;;4100514;29;20046;-69
2023/10/29 01:12:19;;;;;;;5.75;5.55;;;;;;;;;;4100321;29;20043;-69
2023/10/29 01:14:21;;;;;;;7.35;7.25;;;;;;;;;;4100249;29;20425;-69
2023/10/29 01:16:22;;;;;;;9.40;9.27;;;;;;;;;;4083072;29;20040;-69
2023/10/29 01:18:24;;;;;;;10.43;10.00;;;;;;;;;;4100477;29;20506;-68
2023/10/29 01:20:26;;;;;;;9.77;9.48;;;;;;;;;;4115755;28;20070;-68
2023/10/29 01:22:28;;;;;;;11.43;11.02;;;;;;;;;;4116155;28;20074;-68
2023/10/29 01:24:29;;;;;;;10.03;9.70;;;;;;;;;;4116343;28;20047;-69
2023/10/29 01:26:31;;;;;;;11.43;10.93;;;;;;;;;;4115969;28;20050;-68
2023/10/29 01:28:33;;;;;;;10.40;9.85;;;;;;;;;;4116294;28;20077;-68
2023/10/29 01:30:34;;;;;;;9.25;8.95;;;;;;;;;;4115977;28;20038;-68
2023/10/29 01:32:37;;;;;;;10.47;9.77;;;;;;;;;;4116068;28;20074;-69
2023/10/29 01:34:38;;;;;;;11.95;11.27;;;;;;;;;;4116202;28;20051;-69
2023/10/29 01:36:40;;;;;;;11.17;10.67;;;;;;;;;;4116251;28;20162;-69
2023/10/29 01:38:42;;;;;;;10.57;10.25;;;;;;;;;;4115610;28;20046;-68
2023/10/29 01:40:44;;;;;;;10.73;10.33;;;;;;;;;;4115810;28;20043;-68
2023/10/29 01:42:46;;;;;;;11.93;11.43;;;;;;;;;;4115933;28;20046;-68
2023/10/29 01:44:47;;;;;;;10.43;9.98;;;;;;;;;;4115394;28;20309;-69
2023/10/29 01:46:50;;;;;;;10.55;10.35;;;;;;;;;;4115299;28;20042;-69
2023/10/29 01:48:51;;;;;;;10.30;10.10;;;;;;;;;;4115767;28;20050;-69
2023/10/29 01:50:53;;;;;;;9.83;9.20;;;;;;;;;;4100714;28;20032;-69
2023/10/29 01:52:55;;;;;;;7.30;7.10;;;;;;;;;;4099794;29;20094;-69
2023/10/29 01:54:57;;;;;;;6.47;6.17;;;;;;;;;;4099660;29;20377;-69
2023/10/29 01:56:59;;;;;;;9.70;9.23;;;;;;;;;;4099744;29;20051;-69
2023/10/29 01:59:00;;;;;;;10.10;9.80;;;;;;;;;;4100302;28;20051;-69
2023/10/29 02:01:08;;;;;;;10.30;10.05;;;;;;;;;;4132092;28;20042;-65
2023/10/29 02:05:33;;;;;;;11.40;10.75;;;;;;;;;;4129588;28;20149;-67
2023/10/29 02:07:34;;;;;;;10.17;9.60;;;;;;;;;;4131613;28;20045;-66
2023/10/29 02:09:37;;;;;;;10.37;9.93;;;;;;;;;;4131582;28;20281;-67
2023/10/29 02:11:39;;;;;;;11.60;11.32;;;;;;;;;;4131720;28;20292;-67
2023/10/29 02:13:40;;;;;;;10.05;9.93;;;;;;;;;;4131588;28;20112;-67
2023/10/29 02:15:42;;;;;;;10.37;10.17;;;;;;;;;;4131526;28;20052;-66
2023/10/29 02:17:44;;;;;;;11.80;11.50;;;;;;;;;;4131661;28;20376;-66
2023/10/29 02:19:46;;;;;;;10.93;10.63;;;;;;;;;;4131570;28;20125;-67
2023/10/29 02:21:47;;;;;;;12.10;11.60;;;;;;;;;;4131621;28;20058;-67
2023/10/29 02:23:49;;;;;;;9.17;9.07;;;;;;;;;;4131426;28;20045;-66
2023/10/29 02:25:51;;;;;;;10.40;10.07;;;;;;;;;;4131439;28;20422;-66
2023/10/29 02:27:52;;;;;;;9.90;9.67;;;;;;;;;;4131521;28;20046;-66
2023/10/29 02:29:54;;;;;;;12.17;11.30;;;;;;;;;;4131746;28;20130;-66
2023/10/29 02:31:56;;;;;;;11.65;11.45;;;;;;;;;;4131543;28;20285;-66
2023/10/29 02:34:00;;;;;;;12.10;11.45;;;;;;;;;;4131592;28;20121;-66
2023/10/29 02:36:01;;;;;;;11.45;11.02;;;;;;;;;;4131333;28;20046;-67
2023/10/29 02:38:03;;;;;;;11.20;10.97;;;;;;;;;;4114141;28;20180;-66
2023/10/29 02:40:05;;;;;;;13.68;13.43;;;;;;;;;;4131131;28;20293;-66
2023/10/29 02:42:07;;;;;;;12.07;11.15;;;;;;;;;;4131543;28;20049;-67
2023/10/29 02:44:09;;;;;;;9.80;9.55;;;;;;;;;;4131432;28;20042;-66
2023/10/29 02:46:10;;;;;;;10.82;10.40;;;;;;;;;;4123986;28;20042;-67
2023/10/29 02:48:12;;;;;;;12.25;11.85;;;;;;;;;;4115535;28;20113;-67
2023/10/29 02:50:14;;;;;;;12.47;11.90;;;;;;;;;;4115166;28;20153;-66
2023/10/29 02:52:16;;;;;;;13.35;12.45;;;;;;;;;;4115532;28;20145;-67
2023/10/29 02:54:18;;;;;;;13.05;12.35;;;;;;;;;;4115485;28;20097;-67
2023/10/29 02:56:19;;;;;;;13.45;12.80;;;;;;;;;;4134672;28;20037;-66
2023/10/29 02:58:21;;;;;;;11.70;11.27;;;;;;;;;;4150710;28;20069;-67
2023/10/29 03:00:26;;;;;;;11.18;10.77;;;;;;;;;;4135482;28;20047;-67
2023/10/29 03:02:28;;;;;;;11.82;11.32;;;;;;;;;;4117102;28;20058;-66
2023/10/29 03:04:29;;;;;;;14.15;13.80;;;;;;;;;;4134159;28;20050;-66
2023/10/29 03:06:31;;;;;;;11.00;10.80;;;;;;;;;;4134643;28;20046;-67
2023/10/29 03:08:33;;;;;;;11.07;10.68;;;;;;;;;;4134222;28;20352;-67
2023/10/29 03:10:35;;;;;;;9.20;8.80;;;;;;;;;;4134299;28;20034;-67
2023/10/29 03:12:37;;;;;;;10.43;9.87;;;;;;;;;;4120056;28;20175;-67
2023/10/29 03:14:39;;;;;;;11.93;10.97;;;;;;;;;;4134203;28;20093;-66
2023/10/29 03:16:40;;;;;;;9.90;9.70;;;;;;;;;;4134277;28;20285;-66
2023/10/29 03:18:42;;;;;;;11.77;11.33;;;;;;;;;;4134187;28;20042;-67
2023/10/29 03:20:44;;;;;;;10.23;9.50;;;;;;;;;;4134147;28;20320;-67
2023/10/29 03:22:45;;;;;;;9.27;9.03;;;;;;;;;;4116821;28;20053;-67
2023/10/29 03:24:47;;;;;;;8.93;8.73;;;;;;;;;;4134075;28;20434;-67
2023/10/29 03:26:49;;;;;;;8.75;8.55;;;;;;;;;;4134062;28;20072;-67
2023/10/29 03:28:51;;;;;;;8.35;7.93;;;;;;;;;;4134197;28;20512;-67
2023/10/29 03:30:52;;;;;;;7.07;6.88;;;;;;;;;;4133978;28;20097;-67
2023/10/29 03:32:54;;;;;;;9.07;8.77;;;;;;;;;;4134264;28;20472;-68
2023/10/29 03:34:56;;;;;;;11.32;10.40;;;;;;;;;;4134179;28;20125;-67
2023/10/29 03:36:58;;;;;;;9.63;9.37;;;;;;;;;;4134084;28;20038;-67
2023/10/29 03:38:59;;;;;;;8.03;7.83;;;;;;;;;;4133911;28;20046;-67
2023/10/29 03:41:01;;;;;;;9.43;9.13;;;;;;;;;;4134055;28;20046;-68
2023/10/29 03:43:03;;;;;;;9.00;8.50;;;;;;;;;;4121378;28;20364;-67
2023/10/29 03:45:05;;;;;;;10.47;10.07;;;;;;;;;;4117905;28;20039;-67
2023/10/29 03:47:07;;;;;;;10.18;9.45;;;;;;;;;;4117510;28;20837;-67
2023/10/29 03:49:11;;;;;;;10.23;9.73;;;;;;;;;;4117765;28;20038;-68
2023/10/29 03:51:12;;;;;;;8.18;7.47;;;;;;;;;;4117629;28;20094;-68
2023/10/29 03:53:17;;;;;;;11.30;10.73;;;;;;;;;;4148067;28;20042;-67
2023/10/29 03:55:19;;;;;;;10.73;10.35;;;;;;;;;;4149807;28;20038;-67
2023/10/29 03:57:21;;;;;;;9.50;9.20;;;;;;;;;;4149947;28;20065;-66
2023/10/29 03:59:22;;;;;;;11.40;11.02;;;;;;;;;;4145494;28;20069;-67
2023/10/29 04:01:24;;;;;;;9.73;9.17;;;;;;;;;;4133661;28;20043;-67
2023/10/29 04:03:26;;;;;;;8.20;7.53;;;;;;;;;;4133608;28;20043;-67
2023/10/29 04:05:28;;;;;;;9.68;9.48;;;;;;;;;;4133333;28;20285;-67
2023/10/29 04:07:29;;;;;;;10.13;9.75;;;;;;;;;;4133347;28;20034;-68
2023/10/29 04:09:31;;;;;;;10.93;10.60;;;;;;;;;;4133005;28;20046;-68
2023/10/29 04:11:33;;;;;;;11.65;11.25;;;;;;;;;;4133400;28;20289;-67
2023/10/29 04:13:35;;;;;;;10.95;10.50;;;;;;;;;;4133336;28;20067;-66
2023/10/29 04:15:37;;;;;;;11.30;10.43;;;;;;;;;;4133355;28;20042;-66
2023/10/29 04:17:38;;;;;;;8.10;8.00;;;;;;;;;;4133344;28;20046;-67
2023/10/29 04:19:40;;;;;;;12.50;9.38;;;;;;;;;;4133119;28;20046;-67
2023/10/29 04:21:42;;;;;;;8.38;8.07;;;;;;;;;;4133333;28;20045;-67
2023/10/29 04:23:44;;;;;;;10.45;10.10;;;;;;;;;;4131870;28;20076;-67
2023/10/29 04:25:46;;;;;;;12.43;11.85;;;;;;;;;;4131944;28;20050;-67
2023/10/29 04:27:47;;;;;;;10.40;9.77;;;;;;;;;;4133146;28;20370;-67
2023/10/29 04:29:49;;;;;;;9.77;9.23;;;;;;;;;;4133461;28;20125;-67
2023/10/29 04:31:51;;;;;;;10.35;10.13;;;;;;;;;;4133390;28;20038;-67
2023/10/29 04:33:53;;;;;;;9.93;9.48;;;;;;;;;;4133232;28;20117;-67
2023/10/29 04:35:54;;;;;;;11.75;11.23;;;;;;;;;;4133196;28;20121;-67
2023/10/29 04:37:56;;;;;;;12.02;11.43;;;;;;;;;;4131673;28;20051;-68
2023/10/29 04:39:58;;;;;;;11.30;10.63;;;;;;;;;;4116949;28;20045;-67
2023/10/29 04:42:01;;;;;;;10.27;9.98;;;;;;;;;;4116832;28;20047;-67
2023/10/29 04:44:04;;;;;;;9.45;8.95;;;;;;;;;;4099549;28;20099;-68
2023/10/29 04:46:06;;;;;;;7.72;7.18;;;;;;;;;;4116531;28;20427;-67
2023/10/29 04:48:08;;;;;;;8.97;8.67;;;;;;;;;;4124365;28;20489;-67
2023/10/29 04:50:12;;;;;;;9.25;8.65;;;;;;;;;;4148942;28;20034;-67
2023/10/29 04:52:14;;;;;;;6.25;5.90;;;;;;;;;;4131828;28;20518;-68
2023/10/29 04:54:16;;;;;;;8.77;8.13;;;;;;;;;;4149118;28;20068;-67
2023/10/29 04:56:18;;;;;;;9.65;8.98;;;;;;;;;;4131444;28;20050;-68
2023/10/29 04:58:20;;;;;;;10.63;9.82;;;;;;;;;;4149193;28;20493;-68
2023/10/29 05:00:21;;;;;;;9.00;8.50;;;;;;;;;;4136416;28;20046;-67
2023/10/29 05:02:23;;;;;;;8.80;8.60;;;;;;;;;;4115356;28;20426;-67
2023/10/29 05:04:25;;;;;;;8.73;8.37;;;;;;;;;;4132247;28;20058;-67
2023/10/29 05:06:26;;;;;;;8.35;8.25;;;;;;;;;;4132757;28;20073;-68
2023/10/29 05:08:28;;;;;;;8.73;8.10;;;;;;;;;;4132529;28;20111;-67
2023/10/29 05:10:30;;;;;;;8.57;8.45;;;;;;;;;;4131255;28;20769;-67
2023/10/29 05:12:32;;;;;;;9.27;8.97;;;;;;;;;;4131620;28;20043;-67
2023/10/29 05:14:33;;;;;;;10.48;10.05;;;;;;;;;;4132506;28;20043;-68
2023/10/29 05:16:35;;;;;;;10.10;10.00;;;;;;;;;;4132448;28;20042;-68
2023/10/29 05:18:37;;;;;;;12.25;11.82;;;;;;;;;;4132340;28;20343;-68
2023/10/29 05:20:39;;;;;;;11.27;10.85;;;;;;;;;;4131699;28;20050;-67
2023/10/29 05:22:43;;;;;;;11.48;10.73;;;;;;;;;;4132365;28;20502;-67
2023/10/29 05:24:47;;;;;;;9.32;8.93;;;;;;;;;;4132431;28;20398;-67
2023/10/29 05:26:49;;;;;;;9.05;8.95;;;;;;;;;;4131321;28;20038;-68
2023/10/29 05:28:51;;;;;;;10.40;10.20;;;;;;;;;;4132149;28;20117;-68
2023/10/29 05:30:52;;;;;;;11.97;11.57;;;;;;;;;;4132183;28;20316;-67
2023/10/29 05:32:54;;;;;;;11.60;10.57;;;;;;;;;;4132202;28;20296;-67
2023/10/29 05:34:56;;;;;;;8.98;8.68;;;;;;;;;;4124557;28;20506;-67
2023/10/29 05:36:58;;;;;;;10.18;9.88;;;;;;;;;;4116268;28;20066;-67
2023/10/29 05:39:01;;;;;;;11.30;10.45;;;;;;;;;;4115835;28;20050;-67
2023/10/29 05:41:02;;;;;;;10.57;10.35;;;;;;;;;;4116103;28;20053;-67
2023/10/29 05:43:06;;;;;;;11.50;11.10;;;;;;;;;;4114726;28;20123;-67
2023/10/29 05:45:10;;;;;;;12.77;12.07;;;;;;;;;;4136459;28;20080;-68
2023/10/29 05:47:12;;;;;;;13.00;12.32;;;;;;;;;;4120787;28;20046;-67
2023/10/29 05:49:14;;;;;;;11.47;10.73;;;;;;;;;;4115830;28;20034;-68
2023/10/29 05:51:19;;;;;;;10.17;9.50;;;;;;;;;;4116336;28;20046;-67
2023/10/29 05:53:21;;;;;;;10.30;9.90;;;;;;;;;;4115874;28;20449;-68
2023/10/29 05:55:23;;;;;;;8.97;8.60;;;;;;;;;;4115875;28;20074;-68
2023/10/29 05:57:24;;;;;;;9.82;9.00;;;;;;;;;;4098620;29;20519;-68
2023/10/29 05:59:28;;;;;;;11.45;9.70;;;;;;;;;;4120434;28;20050;-67
2023/10/29 06:01:29;;;;;;;8.48;8.00;;;;;;;;;;4131578;28;20046;-67
2023/10/29 06:03:31;;;;;;;8.70;8.10;;;;;;;;;;4131722;28;20044;-68
2023/10/29 06:05:33;;;;;;;8.82;8.52;;;;;;;;;;4131481;28;20112;-67
2023/10/29 06:07:37;;;;;;;10.30;9.77;;;;;;;;;;4131702;28;20121;-67
2023/10/29 06:09:41;;;;;;;10.43;9.93;;;;;;;;;;4131613;28;20289;-67
2023/10/29 06:11:43;;;;;;;7.95;7.47;;;;;;;;;;4131580;28;20556;-67
2023/10/29 06:13:45;;;;;;;5.90;5.63;;;;;;;;;;4131834;28;20042;-67
2023/10/29 06:15:47;;;;;;;11.90;8.07;;;;;;;;;;4131563;28;20053;-69
2023/10/29 06:17:48;;;;;;;7.00;6.90;;;;;;;;;;4130676;28;20038;-67
2023/10/29 06:19:50;;;;;;;7.22;7.13;;;;;;;;;;4131661;28;20042;-67
2023/10/29 06:21:52;;;;;;;8.10;7.80;;;;;;;;;;4131552;28;20586;-67
2023/10/29 06:23:53;;;;;;;8.18;7.88;;;;;;;;;;4131353;28;20777;-67
2023/10/29 06:25:55;;;;;;;9.90;9.38;;;;;;;;;;4131444;28;20030;-67
2023/10/29 06:27:56;;;;;;;9.07;8.73;;;;;;;;;;4131652;28;20050;-67
2023/10/29 06:29:58;;;;;;;7.90;7.27;;;;;;;;;;4131498;28;20046;-68
2023/10/29 06:32:00;;;;;;;5.65;5.43;;;;;;;;;;4117326;28;20062;-67
2023/10/29 06:34:02;;;;;;;6.37;6.03;;;;;;;;;;4136779;28;20069;-68
2023/10/29 06:36:03;;;;;;;9.18;8.80;;;;;;;;;;4136766;28;20460;-67
2023/10/29 06:38:05;;;;;;;8.95;8.02;;;;;;;;;;4136959;28;20096;-67
2023/10/29 06:40:08;;;;;;;10.23;9.93;;;;;;;;;;4136717;28;20046;-67
2023/10/29 06:42:10;;;;;;;8.57;8.38;;;;;;;;;;4120700;28;20321;-67
2023/10/29 06:44:11;;;;;;;8.50;8.30;;;;;;;;;;4120604;28;20822;-67
2023/10/29 06:46:15;;;;;;;7.93;7.73;;;;;;;;;;4103344;28;20114;-68
2023/10/29 06:48:17;;;;;;;8.52;8.15;;;;;;;;;;4120709;28;20141;-68
2023/10/29 06:50:19;;;;;;;8.57;8.02;;;;;;;;;;4120538;28;20035;-67
2023/10/29 06:52:21;;;;;;;8.67;8.00;;;;;;;;;;4120874;28;20097;-67
2023/10/29 06:54:22;;;;;;;8.43;8.07;;;;;;;;;;4120538;28;20282;-67
2023/10/29 06:56:25;;;;;;;8.85;8.40;;;;;;;;;;4123578;28;20037;-68
2023/10/29 06:58:27;;;;;;;7.82;7.43;;;;;;;;;;4136514;28;20537;-67
2023/10/29 07:00:29;;;;;;;6.18;5.97;;;;;;;;;;4136425;28;20034;-67
2023/10/29 07:02:31;;;;;;;9.60;8.85;;;;;;;;;;4136584;28;20572;-68
2023/10/29 07:04:33;;;;;;;8.00;7.60;;;;;;;;;;4136318;28;20141;-67
2023/10/29 07:06:35;;;;;;;6.95;6.68;;;;;;;;;;4136494;28;20038;-68
2023/10/29 07:08:37;;;;;;;7.63;7.25;;;;;;;;;;4136364;28;20046;-67
2023/10/29 07:10:39;;;;;;;7.03;6.72;;;;;;;;;;4136501;28;20076;-68
2023/10/29 07:12:41;;;;;;;7.75;7.45;;;;;;;;;;4136626;28;20034;-68
2023/10/29 07:14:43;;;;;;;8.35;8.05;;;;;;;;;;4136710;28;20459;-67
2023/10/29 07:16:45;;;;;;;;;;;;;;;;;;4136927;28;20042;-67
2023/10/29 07:18:47;;;;;;;6.72;6.47;;;;;;;;;;4136464;28;19926;-68
2023/10/29 07:20:52;;;;;;;6.75;6.40;;;;;;;;;;4136423;28;20046;-68
2023/10/29 07:22:54;;;;;;;6.35;6.20;;;;;;;;;;4136356;28;20050;-68
2023/10/29 07:24:56;;;;;;;7.15;5.43;;;;;;;;;;4136576;28;20125;-68
2023/10/29 07:26:58;;;;;;;4.07;3.53;;;;;;;;;;4136606;28;20042;-68
2023/10/29 07:29:00;;;;;;;4.63;3.13;;;;;;;;;;4136279;28;20121;-67
2023/10/29 07:31:02;;;;;;;5.05;3.63;;;;;;;;;;4130304;28;20674;-68
2023/10/29 07:33:04;;;;;;;;;;;;;;;;;;4120695;28;20038;-67
2023/10/29 07:35:06;;;;;;;3.03;2.80;;;;;;;;;;4118872;28;19930;-68
2023/10/29 07:37:09;;;;;;;3.88;2.53;;;;;;;;;;4131656;28;20387;-68
2023/10/29 07:39:12;;;;;;;7.63;2.80;;;;;;;;;;4152249;28;20100;-68
2023/10/29 07:41:20;;;;;;;4.28;2.53;;;;;;;;;;4152861;28;20048;-68
2023/10/29 07:43:22;;;;;;;3.92;2.33;;;;;;;;;;4150358;28;20112;-69
2023/10/29 07:45:24;;;;;;;4.47;2.07;;;;;;;;;;4149992;28;20069;-68
2023/10/29 07:47:25;;;;;;;3.90;2.50;;;;;;;;;;4138184;28;20365;-67
2023/10/29 07:49:27;;;;;;;5.27;3.23;;;;;;;;;;4133754;28;20388;-68
2023/10/29 07:51:29;;;;;;;4.67;3.60;;;;;;;;;;4133729;28;20277;-69
2023/10/29 07:53:30;;;;;;;9.07;2.30;;;;;;;;;;4116269;28;20035;-68
2023/10/29 07:55:33;;;;;;;5.90;2.60;;;;;;;;;;4133897;28;20048;-68
2023/10/29 07:57:35;;;;;;;3.55;2.30;;;;;;;;;;4133659;28;20406;-68
2023/10/29 07:59:37;;;;;;;3.67;2.70;;;;;;;;;;4133458;28;20468;-68
2023/10/29 08:01:39;;;;;;;3.63;3.28;;;;;;;;;;4133630;28;20046;-68
2023/10/29 08:03:41;;;;;;;6.18;3.17;;;;;;;;;;4133440;28;20449;-68
2023/10/29 08:05:50;;;;;;;5.60;3.47;;;;;;;;;;4133441;28;20046;-68
2023/10/29 08:07:51;;;;;;;5.63;2.65;;;;;;;;;;4133501;28;20466;-68
2023/10/29 08:09:53;;;;;;;8.10;2.67;;;;;;;;;;4133495;28;20481;-68
2023/10/29 08:11:55;;;;;;;6.55;2.78;;;;;;;;;;4133421;28;20048;-69
2023/10/29 08:13:56;;;;;;;4.53;2.88;;;;;;;;;;4133286;28;20565;-68
2023/10/29 08:15:58;;;;;;;6.78;3.15;;;;;;;;;;4133239;28;20453;-68
2023/10/29 08:18:00;;;;;;;10.07;4.28;;;;;;;;;;4133224;28;20065;-68
2023/10/29 08:20:02;;;;;;;13.13;3.63;;;;;;;;;;4133203;28;20058;-69
2023/10/29 08:22:04;;;;;;;8.52;2.63;;;;;;;;;;4133237;28;20058;-69
2023/10/29 08:24:06;;;;;;;4.63;3.40;;;;;;;;;;4115768;28;20146;-69
2023/10/29 08:26:08;;;;;;;4.88;3.33;;;;;;;;;;4133046;28;20505;-69
2023/10/29 08:28:09;;;;;;;10.97;3.97;;;;;;;;;;4133157;28;20073;-69
2023/10/29 08:30:12;;;;;;;5.95;3.70;;;;;;;;;;4132929;28;20097;-69
2023/10/29 08:32:13;;;;;;;;;;;;;;;;;;4117763;28;20039;-68
2023/10/29 08:34:15;;;;;;;3.25;2.67;;;;;;;;;;4125235;28;20385;-69
2023/10/29 08:36:17;;;;;;;4.05;3.22;;;;;;;;;;4149337;28;20048;-69
2023/10/29 08:38:19;;;;;;;2.38;2.22;;;;;;;;;;4149156;28;20041;-68
2023/10/29 08:40:20;;;;;;;4.28;2.75;;;;;;;;;;4148779;28;20046;-69
2023/10/29 08:42:22;;;;;;;4.25;2.13;;;;;;;;;;4131961;28;20571;-69
2023/10/29 08:44:24;;;;;;;4.67;2.00;;;;;;;;;;4149028;28;20388;-69
2023/10/29 08:46:25;;;;;;;3.22;1.77;;;;;;;;;;4145295;28;20406;-69
2023/10/29 08:48:27;;;;;;;2.75;1.48;;;;;;;;;;4132863;28;20117;-69
2023/10/29 08:50:29;;;;;;;3.35;1.58;;;;;;;;;;4132486;28;20545;-69
2023/10/29 08:52:30;;;;;;;4.53;1.90;;;;;;;;;;4132738;28;20034;-69
2023/10/29 08:54:35;;;;;;;3.33;1.50;;;;;;;;;;4132479;28;20039;-69
2023/10/29 08:56:36;;;;;;;7.32;1.77;;;;;;;;;;4132956;28;20038;-69
2023/10/29 08:58:38;;;;;;;5.90;1.95;;;;;;;;;;4132508;28;20406;-70
2023/10/29 09:00:40;;;;;;;2.10;1.85;;;;;;;;;;4132542;28;20592;-68
2023/10/29 09:02:47;;;;;;;4.15;2.00;;;;;;;;;;4132560;28;20458;-70
2023/10/29 09:04:52;;;;;;;4.45;2.75;;;;;;;;;;4132363;28;20058;-69
2023/10/29 09:06:54;;;;;;;2.35;1.33;;;;;;;;;;4132566;28;20077;-70
2023/10/29 09:08:56;;;;;;;4.15;1.30;;;;;;;;;;4132231;28;20049;-70
2023/10/29 09:10:58;;;;;;;1.98;1.60;;;;;;;;;;4132451;28;20125;-70
2023/10/29 09:12:59;;;;;;;6.55;1.85;;;;;;;;;;4132440;28;20041;-68
2023/10/29 09:15:01;;;;;;;2.05;1.30;;;;;;;;;;4132234;28;20441;-71
2023/10/29 09:17:04;;;;;;;1.77;1.17;;;;;;;;;;4132319;28;20057;-69
2023/10/29 09:19:06;;;;;;;1.77;1.10;;;;;;;;;;4132502;28;20042;-69
2023/10/29 09:21:07;;;;;;;1.33;1.20;;;;;;;;;;4132245;28;20038;-67
2023/10/29 09:23:09;;;;;;;1.40;1.10;;;;;;;;;;4132516;28;20038;-69
2023/10/29 09:25:11;;;;;;;2.33;1.63;;;;;;;;;;4132390;28;20042;-69
2023/10/29 09:27:12;;;;;;;4.20;1.80;;;;;;;;;;4126493;28;20122;-69
2023/10/29 09:29:14;;;;;;;2.50;1.45;;;;;;;;;;4120954;28;20612;-68
2023/10/29 09:31:17;;;;;;;4.53;1.75;;;;;;;;;;4148408;28;20488;-69
2023/10/29 09:33:19;;;;;;;1.30;1.20;;;;;;;;;;4148231;28;20037;-69
2023/10/29 09:35:21;;;;;;;2.45;1.20;;;;;;;;;;4148294;28;20045;-69
2023/10/29 09:37:22;;;;;;;6.07;1.33;;;;;;;;;;4148281;28;20425;-69
2023/10/29 09:39:24;;;;;;;3.27;2.07;;;;;;;;;;4148048;28;20125;-71
2023/10/29 09:41:26;;;;;;;2.97;1.20;;;;;;;;;;4148241;28;20296;-70
2023/10/29 09:43:31;;;;;;;2.72;1.20;;;;;;;;;;4148225;28;20053;-70
2023/10/29 09:45:37;;;;;;;3.08;1.33;;;;;;;;;;4141786;28;20118;-70
2023/10/29 09:47:39;;;;;;;4.28;2.55;;;;;;;;;;4118350;28;20057;-69
2023/10/29 09:49:44;;;;;;;3.80;2.42;;;;;;;;;;4116015;28;20035;-69
2023/10/29 09:51:46;;;;;;;3.53;1.55;;;;;;;;;;4115865;28;20043;-69
2023/10/29 09:53:48;;;;;;;;;;;;;;;;;;4116223;28;20053;-69
2023/10/29 09:55:51;;;;;;;4.72;1.23;;;;;;;;;;4115713;28;19926;-70
2023/10/29 09:57:52;;;;;;;2.10;1.20;;;;;;;;;;4115881;28;20038;-70
2023/10/29 09:59:54;;;;;;;3.55;1.42;;;;;;;;;;4124088;28;20046;-69
2023/10/29 10:01:56;;;;;;;2.92;1.15;;;;;;;;;;4131744;28;20038;-70
2023/10/29 10:03:59;;;;;;;3.60;1.20;;;;;;;;;;4131371;28;20516;-70
2023/10/29 10:06:01;;;;;;;8.27;1.40;;;;;;;;;;4131233;28;20128;-69
2023/10/29 10:08:04;;;;;;;5.72;1.33;;;;;;;;;;4131488;28;20058;-71
2023/10/29 10:10:06;;;;;;;2.17;1.13;;;;;;;;;;4131401;28;20494;-69
2023/10/29 10:12:08;;;;;;;2.38;1.02;;;;;;;;;;4131784;28;20538;-70
2023/10/29 10:14:30;;;;;;;4.78;1.35;;;;;;;;;;4131515;28;20563;-70
2023/10/29 10:16:31;;;;;;;3.67;1.20;;;;;;;;;;4114252;28;20042;-71
2023/10/29 10:18:52;;;;;;;1.45;1.10;;;;;;;;;;4131536;28;20313;-70
2023/10/29 10:20:56;;;;;;;1.25;1.00;;;;;;;;;;4131484;28;20050;-71
2023/10/29 10:23:01;;;;;;;2.78;1.10;;;;;;;;;;4130112;28;20439;-71
2023/10/29 10:25:03;;;;;;;4.55;1.10;;;;;;;;;;4115542;28;20039;-69
2023/10/29 10:27:05;;;;;;;2.00;1.02;;;;;;;;;;4146186;28;20042;-71
2023/10/29 10:29:08;;;;;;;2.03;1.05;;;;;;;;;;4147613;28;20049;-70
2023/10/29 10:31:15;;;;;;;3.03;1.20;;;;;;;;;;4130099;28;20073;-71
2023/10/29 10:33:21;;;;;;;0.98;0.98;;;;;;;;;;4126878;28;20053;-77
2023/10/29 10:35:37;;;;;;;2.40;1.17;;;;;;;;;;4126840;28;20061;-78
2023/10/29 10:37:52;;;;;;;1.88;1.20;;;;;;;;;;4130792;28;20039;-76
2023/10/29 10:39:54;;;;;;;1.80;1.10;;;;;;;;;;4122644;28;20074;-74
2023/10/29 10:41:56;;;;;;;;;;;;;;;;;;4126973;28;20038;-76
2023/10/29 10:44:11;;;;;;;1.88;0.88;;;;;;;;;;4125122;28;19992;-76
2023/10/29 10:46:13;;;;;;;1.80;1.00;;;;;;;;;;4121527;28;20117;-75
2023/10/29 10:48:16;;;;;;;1.67;0.90;;;;;;;;;;4125440;28;20054;-76
2023/10/29 10:50:17;;;;;;;;;;;;;;;;;;4130737;28;20049;-76
2023/10/29 10:52:19;;;;;;;2.13;0.90;;;;;;;;;;4130305;28;19926;-74
2023/10/29 10:54:21;;;;;;;1.60;1.08;;;;;;;;;;4131528;28;20043;-77
2023/10/29 10:56:23;;;;;;;1.67;0.82;;;;;;;;;;4129099;28;20160;-75
2023/10/29 10:58:26;;;;;;;0.80;0.80;;;;;;;;;;4130096;28;20070;-76
2023/10/29 11:00:31;;;;;;;3.00;0.82;;;;;;;;;;4128917;28;20035;-76
2023/10/29 11:02:35;;;;;;;1.98;1.10;;;;;;;;;;4125969;28;20667;-75
2023/10/29 11:04:38;;;;;;;1.50;0.98;;;;;;;;;;4122676;28;20059;-74
2023/10/29 11:06:40;;;;;;;4.22;1.15;;;;;;;;;;4126221;28;20437;-75
2023/10/29 11:08:42;;;;;;;1.73;1.10;;;;;;;;;;4119809;28;20058;-76
2023/10/29 11:10:46;;;;;;;3.75;1.10;;;;;;;;;;4122540;28;20046;-75
2023/10/29 11:12:47;;;;;;;2.28;1.10;;;;;;;;;;4128047;28;20065;-75
2023/10/29 11:15:08;;;;;;;2.35;0.90;;;;;;;;;;4128856;28;20038;-75
2023/10/29 11:17:10;;;;;;;1.20;1.10;;;;;;;;;;4125109;28;20125;-76
2023/10/29 11:19:30;;;;;;;2.47;1.08;;;;;;;;;;4124653;28;20042;-68
2023/10/29 11:21:32;;;;;;;1.73;0.90;;;;;;;;;;4128194;28;20066;-69
2023/10/29 11:23:34;;;;;;;1.80;0.80;;;;;;;;;;4127238;28;20061;-69
2023/10/29 11:25:36;;;;;;;;;;;;;;;;;;4129272;28;20505;-70
2023/10/29 11:27:40;;;;;;;2.75;1.20;;;;;;;;;;4130658;28;20402;-68
2023/10/29 11:29:42;;;;;;;2.38;1.25;;;;;;;;;;4130415;28;20042;-70
2023/10/29 11:31:44;;;;;;;3.58;1.25;;;;;;;;;;4126180;28;20045;-69
2023/10/29 11:33:55;;;;;;;1.00;0.90;;;;;;;;;;4127768;28;20577;-70
2023/10/29 11:36:16;;;;;;;1.52;1.25;;;;;;;;;;4129085;28;20062;-69
2023/10/29 11:38:29;;;;;;;1.60;1.00;;;;;;;;;;4124402;28;20062;-70
2023/10/29 11:40:32;;;;;;;6.80;2.33;;;;;;;;;;4123902;28;20115;-69
2023/10/29 11:42:34;;;;;;;1.38;0.80;;;;;;;;;;4128768;28;20042;-70
2023/10/29 11:44:35;;;;;;;2.60;0.80;;;;;;;;;;4130648;28;20490;-69
2023/10/29 11:46:58;;;;;;;5.47;0.73;;;;;;;;;;4130421;28;20046;-69
2023/10/29 11:49:04;;;;;;;1.90;0.80;;;;;;;;;;4128904;28;20034;-70
2023/10/29 11:51:08;;;;;;;1.00;1.00;;;;;;;;;;4130704;28;20042;-68
2023/10/29 11:53:36;;;;;;;3.95;1.25;;;;;;;;;;4128346;28;20624;-69
2023/10/29 11:55:44;;;;;;;3.25;1.00;;;;;;;;;;4123852;28;20458;-69
2023/10/29 11:57:47;;;;;;;2.42;0.80;;;;;;;;;;4131369;28;20553;-70
2023/10/29 11:59:53;;;;;;;4.18;0.90;;;;;;;;;;4126079;28;20072;-71
2023/10/29 12:01:54;;;;;;;1.10;0.80;;;;;;;;;;4130853;28;20398;-70
2023/10/29 12:03:56;;;;;;;2.45;1.10;;;;;;;;;;4128821;28;20070;-69
2023/10/29 12:05:58;;;;;;;3.53;1.13;;;;;;;;;;4117269;28;20047;-69
2023/10/29 12:08:00;;;;;;;2.22;0.80;;;;;;;;;;4133248;28;20050;-69
2023/10/29 12:10:08;;;;;;;2.75;1.10;;;;;;;;;;4118552;28;20077;-69
2023/10/29 12:12:10;;;;;;;3.13;0.90;;;;;;;;;;4117317;28;20198;-69
2023/10/29 12:14:12;;;;;;;2.03;1.13;;;;;;;;;;4118435;28;20037;-69